Private Wetterstation Sandau
Wetterdaten: Woche 26.11.12 - 02.12.12 (KW48)
Datum Zeit Temp. A. Feuchte A. Luftdruck Regen Wind Richtung Taupunkt Windchill
26.11.2012 00:00 6,0 C 79 % 1011,9 hPa 0,0 l/m 10,1 km/h (2 Bft) SW 2,7 C 4,0 C
26.11.2012 01:00 6,4 C 80 % 1011,8 hPa 0,0 l/m 12,6 km/h (3 Bft) S 3,2 C 4,0 C
26.11.2012 02:00 6,9 C 79 % 1012,0 hPa 0,0 l/m 12,2 km/h (2 Bft) SW 3,4 C 4,6 C
26.11.2012 03:00 6,2 C 79 % 1011,9 hPa 0,0 l/m 10,6 km/h (2 Bft) SW 2,9 C 4,1 C
26.11.2012 04:00 4,8 C 83 % 1012,0 hPa 0,0 l/m 5,9 km/h (2 Bft) S-SW 2,1 C 3,8 C
26.11.2012 05:00 3,8 C 85 % 1011,7 hPa 0,0 l/m 4,7 km/h (1 Bft) S-SW 1,6 C 3,1 C
26.11.2012 06:00 3,3 C 87 % 1011,7 hPa 0,0 l/m 5,4 km/h (1 Bft) S-SW 1,4 C 2,4 C
26.11.2012 07:00 2,9 C 88 % 1011,7 hPa 0,0 l/m 6,0 km/h (2 Bft) S-SW 1,1 C 1,6 C
26.11.2012 08:00 2,8 C 89 % 1012,0 hPa 0,0 l/m 6,2 km/h (2 Bft) S-SO 1,2 C 1,5 C
26.11.2012 09:00 5,1 C 87 % 1012,0 hPa 0,0 l/m 5,5 km/h (1 Bft) S-SO 3,1 C 4,1 C
26.11.2012 10:00 8,5 C 76 % 1011,5 hPa 0,0 l/m 4,7 km/h (1 Bft) S-SO 4,5 C 8,0 C
26.11.2012 11:00 8,3 C 75 % 1010,9 hPa 0,0 l/m 3,7 km/h (1 Bft) S-SO 4,2 C 8,1 C
26.11.2012 12:00 8,4 C 76 % 1009,9 hPa 0,0 l/m 5,6 km/h (1 Bft) S-SO 4,5 C 7,8 C
26.11.2012 13:00 9,0 C 75 % 1009,2 hPa 0,0 l/m 4,1 km/h (1 Bft) SO 4,9 C 8,8 C
26.11.2012 14:00 8,9 C 76 % 1008,3 hPa 0,0 l/m 4,0 km/h (1 Bft) SO 4,8 C 8,6 C
26.11.2012 15:00 9,8 C 75 % 1007,6 hPa 0,0 l/m 4,4 km/h (1 Bft) SO 5,5 C 9,6 C
26.11.2012 16:00 9,5 C 77 % 1007,1 hPa 0,0 l/m 5,0 km/h (1 Bft) O-SO 5,7 C 9,2 C
26.11.2012 17:00 8,4 C 81 % 1006,2 hPa 0,0 l/m 6,0 km/h (2 Bft) SO 5,2 C 7,6 C
26.11.2012 18:00 8,2 C 80 % 1005,7 hPa 0,0 l/m 5,4 km/h (1 Bft) SO 5,0 C 7,6 C
26.11.2012 19:00 8,1 C 81 % 1005,1 hPa 0,0 l/m 3,1 km/h (1 Bft) SO 5,0 C 8,0 C
26.11.2012 20:00 8,3 C 81 % 1004,8 hPa 0,0 l/m 1,8 km/h (1 Bft) SO 5,3 C 8,2 C
26.11.2012 21:00 8,1 C 84 % 1004,8 hPa 0,5 l/m 2,0 km/h (1 Bft) S-SO 5,5 C 8,0 C
26.11.2012 22:00 7,5 C 87 % 1004,6 hPa 1,0 l/m 2,7 km/h (1 Bft) S 5,5 C 7,3 C
26.11.2012 23:00 7,4 C 89 % 1004,7 hPa 0,5 l/m 6,4 km/h (2 Bft) S-SW 5,8 C 6,5 C
27.11.2012 00:00 7,4 C 91 % 1004,5 hPa 0,5 l/m 4,6 km/h (1 Bft) S 6,0 C 6,9 C
27.11.2012 01:00 7,6 C 92 % 1004,3 hPa 0,0 l/m 7,0 km/h (2 Bft) S-SW 6,3 C 6,5 C
27.11.2012 02:00 7,6 C 92 % 1004,3 hPa 0,0 l/m 4,0 km/h (1 Bft) S-SW 6,4 C 7,4 C
27.11.2012 03:00 7,4 C 92 % 1004,1 hPa 0,0 l/m 4,0 km/h (1 Bft) S-SW 6,2 C 7,1 C
27.11.2012 04:00 7,6 C 93 % 1004,0 hPa 0,0 l/m 6,0 km/h (2 Bft) S-SW 6,4 C 6,7 C
27.11.2012 05:00 7,8 C 93 % 1004,3 hPa 0,0 l/m 4,2 km/h (1 Bft) S-SW 6,7 C 7,5 C
27.11.2012 06:00 7,6 C 92 % 1004,3 hPa 0,0 l/m 4,4 km/h (1 Bft) S-SW 6,4 C 7,2 C
27.11.2012 07:00 7,2 C 92 % 1004,7 hPa 0,0 l/m 3,5 km/h (1 Bft) S-SW 6,0 C 6,8 C
27.11.2012 08:00 6,7 C 92 % 1005,4 hPa 0,0 l/m 3,5 km/h (1 Bft) S-SW 5,5 C 6,4 C
27.11.2012 09:00 6,9 C 92 % 1005,8 hPa 0,0 l/m 3,0 km/h (1 Bft) S 5,7 C 6,7 C
27.11.2012 10:00 7,4 C 92 % 1006,2 hPa 0,0 l/m 3,6 km/h (1 Bft) S-SW 6,3 C 7,3 C
27.11.2012 11:00 8,3 C 92 % 1006,3 hPa 0,0 l/m 5,5 km/h (1 Bft) S-SW 7,1 C 7,7 C
27.11.2012 12:00 8,7 C 91 % 1006,3 hPa 0,0 l/m 2,6 km/h (1 Bft) S-SW 7,3 C 8,6 C
27.11.2012 13:00 8,9 C 90 % 1006,3 hPa 0,0 l/m 1,8 km/h (1 Bft) S-SW 7,4 C 8,9 C
27.11.2012 14:00 9,1 C 89 % 1006,2 hPa 0,0 l/m 1,2 km/h (1 Bft) S-SW 7,4 C 9,1 C
27.11.2012 15:00 8,6 C 89 % 1006,4 hPa 0,0 l/m 1,4 km/h (1 Bft) W-SW 6,9 C 8,6 C
27.11.2012 16:00 8,0 C 89 % 1006,5 hPa 0,0 l/m 0,2 km/h (0 Bft) W-SW 6,3 C 8,0 C
27.11.2012 17:00 7,4 C 90 % 1006,7 hPa 0,0 l/m 1,1 km/h (0 Bft) W-SW 5,9 C 7,4 C
27.11.2012 18:00 7,0 C 91 % 1006,8 hPa 0,0 l/m 2,8 km/h (1 Bft) S 5,6 C 6,9 C
27.11.2012 19:00 6,7 C 92 % 1007,1 hPa 0,0 l/m 0,2 km/h (0 Bft) S 5,5 C 6,7 C
27.11.2012 20:00 6,1 C 92 % 1007,1 hPa 0,0 l/m 0,4 km/h (0 Bft) S 4,9 C 6,1 C
27.11.2012 21:00 6,0 C 92 % 1007,0 hPa 0,0 l/m 0,9 km/h (0 Bft) S-SO 4,8 C 6,0 C
27.11.2012 22:00 5,8 C 92 % 1007,1 hPa 0,0 l/m 0,1 km/h (0 Bft) S-SO 4,7 C 5,8 C
27.11.2012 23:00 5,4 C 93 % 1007,2 hPa 0,0 l/m 0,3 km/h (0 Bft) S-SO 4,4 C 5,4 C
28.11.2012 00:00 5,3 C 93 % 1007,0 hPa 0,0 l/m 0,6 km/h (0 Bft) S-SO 4,3 C 5,3 C
28.11.2012 01:00 5,2 C 93 % 1006,8 hPa 0,0 l/m 0,5 km/h (0 Bft) S-SO 4,2 C 5,2 C
28.11.2012 02:00 5,0 C 93 % 1006,8 hPa 0,0 l/m 0,4 km/h (0 Bft) S-SO 3,9 C 5,0 C
28.11.2012 03:00 4,9 C 93 % 1006,4 hPa 0,0 l/m 0,4 km/h (0 Bft) S-SO 3,9 C 4,9 C
28.11.2012 04:00 5,0 C 93 % 1006,2 hPa 0,0 l/m 0,2 km/h (0 Bft) S-SO 4,0 C 5,0 C
28.11.2012 05:00 5,0 C 93 % 1006,0 hPa 0,0 l/m 0,9 km/h (0 Bft) SO 3,9 C 5,0 C
28.11.2012 06:00 5,0 C 93 % 1006,0 hPa 0,0 l/m 1,2 km/h (1 Bft) SO 3,9 C 4,9 C
28.11.2012 07:00 5,0 C 93 % 1005,9 hPa 0,5 l/m 0,5 km/h (0 Bft) O-SO 3,9 C 5,0 C
28.11.2012 08:00 5,0 C 93 % 1006,0 hPa 0,0 l/m 0,3 km/h (0 Bft) N 4,0 C 5,0 C
28.11.2012 09:00 5,5 C 94 % 1006,1 hPa 0,0 l/m 0,0 km/h (0 Bft) N 4,6 C 5,5 C
28.11.2012 10:00 6,1 C 93 % 1006,2 hPa 0,0 l/m 0,9 km/h (0 Bft) NO 5,1 C 6,1 C
28.11.2012 11:00 6,3 C 93 % 1006,0 hPa 0,0 l/m 0,5 km/h (0 Bft) NO 5,2 C 6,3 C
28.11.2012 12:00 6,7 C 94 % 1005,9 hPa 0,0 l/m 0,0 km/h (0 Bft) N 5,8 C 6,7 C
28.11.2012 13:00 6,8 C 94 % 1005,3 hPa 0,0 l/m 0,2 km/h (0 Bft) NO 5,9 C 6,8 C
28.11.2012 14:00 6,8 C 94 % 1004,7 hPa 0,0 l/m 0,4 km/h (0 Bft) NO 5,9 C 6,8 C
28.11.2012 15:00 6,5 C 94 % 1004,5 hPa 0,0 l/m 1,3 km/h (1 Bft) N-NO 5,6 C 6,5 C
28.11.2012 16:00 6,1 C 94 % 1004,5 hPa 0,0 l/m 3,0 km/h (1 Bft) N-NW 5,2 C 5,9 C
28.11.2012 17:00 6,1 C 94 % 1004,3 hPa 0,0 l/m 5,4 km/h (1 Bft) N-NO 5,2 C 5,1 C
28.11.2012 18:00 5,9 C 94 % 1004,0 hPa 0,0 l/m 6,5 km/h (2 Bft) N-NO 5,0 C 4,6 C
28.11.2012 19:00 5,8 C 94 % 1004,0 hPa 0,0 l/m 6,1 km/h (2 Bft) N-NO 4,9 C 4,8 C
28.11.2012 20:00 5,7 C 93 % 1004,0 hPa 0,0 l/m 4,5 km/h (1 Bft) N-NO 4,7 C 5,2 C
28.11.2012 21:00 5,3 C 93 % 1003,9 hPa 0,0 l/m 5,8 km/h (2 Bft) N-NO 4,3 C 4,4 C
28.11.2012 22:00 5,1 C 93 % 1003,5 hPa 0,0 l/m 6,3 km/h (2 Bft) N-NO 4,0 C 3,9 C
28.11.2012 23:00 4,7 C 92 % 1003,1 hPa 0,0 l/m 5,3 km/h (1 Bft) N-NO 3,6 C 3,7 C
29.11.2012 00:00 4,5 C 92 % 1002,5 hPa 0,0 l/m 5,3 km/h (1 Bft) N-NO 3,4 C 3,5 C
29.11.2012 01:00 4,5 C 93 % 1002,1 hPa 0,0 l/m 5,4 km/h (1 Bft) N-NO 3,4 C 3,5 C
29.11.2012 02:00 4,6 C 93 % 1001,5 hPa 0,0 l/m 6,3 km/h (2 Bft) N 3,6 C 3,3 C
29.11.2012 03:00 4,7 C 93 % 1000,7 hPa 0,0 l/m 10,5 km/h (2 Bft) N-NO 3,7 C 2,4 C
29.11.2012 04:00 4,9 C 93 % 1000,0 hPa 0,0 l/m 7,8 km/h (2 Bft) N-NO 3,8 C 3,2 C
29.11.2012 05:00 4,8 C 92 % 999,5 hPa 0,0 l/m 9,7 km/h (2 Bft) N-NO 3,7 C 2,8 C
29.11.2012 06:00 4,6 C 91 % 999,3 hPa 0,0 l/m 9,9 km/h (2 Bft) N 3,2 C 2,2 C
29.11.2012 07:00 4,3 C 91 % 999,2 hPa 0,0 l/m 9,5 km/h (2 Bft) N-NO 3,0 C 2,0 C
29.11.2012 08:00 4,2 C 91 % 998,9 hPa 0,0 l/m 8,6 km/h (2 Bft) N-NO 2,9 C 2,2 C
29.11.2012 09:00 4,3 C 92 % 998,7 hPa 0,0 l/m 11,4 km/h (2 Bft) N-NO 3,0 C 1,7 C
29.11.2012 10:00 4,1 C 89 % 998,6 hPa 0,0 l/m 12,9 km/h (3 Bft) N-NO 2,4 C 1,2 C
29.11.2012 11:00 3,9 C 88 % 998,3 hPa 0,0 l/m 12,3 km/h (3 Bft) N-NO 2,1 C 1,2 C
29.11.2012 12:00 3,8 C 87 % 998,1 hPa 0,0 l/m 10,5 km/h (2 Bft) N-NO 1,8 C 1,2 C
29.11.2012 13:00 3,6 C 86 % 998,0 hPa 0,0 l/m 10,0 km/h (2 Bft) N-NO 1,5 C 1,1 C
29.11.2012 14:00 3,8 C 87 % 998,0 hPa 0,0 l/m 9,4 km/h (2 Bft) N-NO 1,8 C 1,4 C
29.11.2012 15:00 3,8 C 87 % 998,3 hPa 0,0 l/m 12,0 km/h (2 Bft) N-NO 1,9 C 1,0 C
29.11.2012 16:00 3,8 C 87 % 998,6 hPa 0,0 l/m 11,5 km/h (2 Bft) N-NO 1,7 C 1,0 C
29.11.2012 17:00 3,3 C 85 % 998,9 hPa 0,0 l/m 14,4 km/h (3 Bft) N-NO 1,0 C -0,1 C
29.11.2012 18:00 2,9 C 87 % 999,2 hPa 0,0 l/m 13,2 km/h (3 Bft) NO 0,9 C -0,4 C
29.11.2012 19:00 2,8 C 86 % 999,5 hPa 0,0 l/m 11,5 km/h (2 Bft) N-NO 0,7 C -0,3 C
29.11.2012 20:00 2,8 C 85 % 999,9 hPa 0,0 l/m 10,3 km/h (2 Bft) N-NO 0,5 C 0,0 C
29.11.2012 21:00 2,6 C 84 % 1000,1 hPa 0,0 l/m 8,6 km/h (2 Bft) N-NO 0,3 C 0,3 C
29.11.2012 22:00 2,5 C 86 % 1000,5 hPa 0,0 l/m 7,9 km/h (2 Bft) NW 0,4 C 0,5 C
29.11.2012 23:00 2,4 C 88 % 1000,9 hPa 0,0 l/m 7,4 km/h (2 Bft) W-NW 0,6 C 0,5 C
30.11.2012 00:00 2,5 C 88 % 1001,3 hPa 0,0 l/m 8,2 km/h (2 Bft) NW 0,7 C 0,4 C
30.11.2012 01:00 2,5 C 89 % 1001,7 hPa 0,0 l/m 9,2 km/h (2 Bft) N-NW 0,9 C 0,1 C
30.11.2012 02:00 2,5 C 89 % 1002,0 hPa 0,0 l/m 8,3 km/h (2 Bft) NW 0,9 C 0,6 C
30.11.2012 03:00 2,5 C 90 % 1002,2 hPa 0,0 l/m 7,7 km/h (2 Bft) W-NW 1,0 C 0,5 C
30.11.2012 04:00 2,5 C 90 % 1002,5 hPa 0,0 l/m 6,2 km/h (2 Bft) NW 1,0 C 1,0 C
30.11.2012 05:00 2,4 C 90 % 1002,9 hPa 0,0 l/m 6,2 km/h (2 Bft) NW 1,0 C 1,1 C
30.11.2012 06:00 2,2 C 90 % 1003,5 hPa 0,5 l/m 6,2 km/h (2 Bft) NW 0,8 C 0,7 C
30.11.2012 07:00 2,2 C 91 % 1004,0 hPa 0,0 l/m 6,2 km/h (2 Bft) NW 0,9 C 0,8 C
30.11.2012 08:00 2,2 C 92 % 1004,5 hPa 0,0 l/m 6,1 km/h (2 Bft) NW 1,1 C 1,0 C
30.11.2012 09:00 2,4 C 92 % 1005,3 hPa 0,0 l/m 5,6 km/h (1 Bft) N 1,2 C 1,1 C
30.11.2012 10:00 2,8 C 91 % 1006,0 hPa 0,0 l/m 5,4 km/h (1 Bft) NW 1,4 C 1,7 C
30.11.2012 11:00 3,3 C 88 % 1006,5 hPa 0,0 l/m 7,6 km/h (2 Bft) N-NW 1,5 C 1,7 C
30.11.2012 12:00 3,2 C 87 % 1006,8 hPa 0,0 l/m 6,0 km/h (2 Bft) NW 1,2 C 1,8 C
30.11.2012 13:00 3,2 C 85 % 1007,2 hPa 0,0 l/m 10,4 km/h (2 Bft) W-NW 0,9 C 0,5 C
30.11.2012 14:00 2,8 C 83 % 1007,8 hPa 0,0 l/m 7,3 km/h (2 Bft) W-NW 0,2 C 1,0 C
30.11.2012 15:00 1,8 C 84 % 1008,4 hPa 0,0 l/m 4,1 km/h (1 Bft) NW -0,7 C 1,1 C
30.11.2012 16:00 0,9 C 85 % 1008,9 hPa 0,0 l/m 2,4 km/h (1 Bft) W-NW -1,3 C 0,8 C
30.11.2012 17:00 0,1 C 87 % 1009,3 hPa 0,0 l/m 3,8 km/h (1 Bft) W-SW -1,8 C -0,7 C
30.11.2012 18:00 -0,2 C 88 % 1009,7 hPa 0,0 l/m 5,5 km/h (1 Bft) W-SW -1,9 C -1,5 C
30.11.2012 19:00 -0,5 C 89 % 1010,1 hPa 0,0 l/m 4,1 km/h (1 Bft) W -2,1 C -1,6 C
30.11.2012 20:00 -0,9 C 88 % 1010,6 hPa 0,0 l/m 4,1 km/h (1 Bft) W-SW -2,6 C -1,9 C
30.11.2012 21:00 -1,2 C 88 % 1011,0 hPa 0,0 l/m 4,8 km/h (1 Bft) W-SW -2,9 C -2,7 C
30.11.2012 22:00 -1,5 C 89 % 1011,1 hPa 0,0 l/m 6,0 km/h (2 Bft) W-SW -3,2 C -3,2 C
30.11.2012 23:00 -1,5 C 89 % 1011,4 hPa 0,0 l/m 4,6 km/h (1 Bft) W-SW -3,0 C -2,4 C
01.12.2012 00:00 -1,0 C 89 % 1011,6 hPa 0,0 l/m 1,6 km/h (1 Bft) S-SW -2,6 C -1,0 C
01.12.2012 01:00 -1,1 C 89 % 1011,6 hPa 0,0 l/m 0,2 km/h (0 Bft) S-SW -2,7 C -1,1 C
01.12.2012 02:00 -1,0 C 90 % 1011,4 hPa 0,0 l/m 2,2 km/h (1 Bft) S -2,5 C -1,2 C
01.12.2012 03:00 -0,4 C 90 % 1011,6 hPa 0,0 l/m 3,4 km/h (1 Bft) S-SW -1,9 C -0,9 C
01.12.2012 04:00 0,0 C 90 % 1011,5 hPa 0,0 l/m 2,3 km/h (1 Bft) S-SW -1,4 C -0,4 C
01.12.2012 05:00 0,1 C 91 % 1011,3 hPa 0,0 l/m 2,5 km/h (1 Bft) S-SW -1,3 C 0,1 C
01.12.2012 06:00 0,1 C 91 % 1011,1 hPa 0,0 l/m 2,8 km/h (1 Bft) S-SW -1,1 C -0,4 C
01.12.2012 07:00 0,3 C 92 % 1011,0 hPa 0,0 l/m 2,6 km/h (1 Bft) S-SW -0,9 C 0,3 C
01.12.2012 08:00 0,5 C 91 % 1011,5 hPa 0,0 l/m 3,9 km/h (1 Bft) S -0,8 C 0,2 C
01.12.2012 09:00 1,1 C 90 % 1011,8 hPa 0,0 l/m 4,8 km/h (1 Bft) S-SW -0,3 C 0,1 C
01.12.2012 10:00 1,5 C 90 % 1012,0 hPa 0,0 l/m 7,0 km/h (2 Bft) W-SW -0,1 C -0,6 C
01.12.2012 11:00 1,9 C 88 % 1012,1 hPa 0,5 l/m 8,1 km/h (2 Bft) SW 0,1 C -0,2 C
01.12.2012 12:00 2,2 C 88 % 1012,0 hPa 0,0 l/m 5,0 km/h (1 Bft) SW 0,4 C 1,3 C
01.12.2012 13:00 2,4 C 88 % 1011,9 hPa 0,0 l/m 6,8 km/h (2 Bft) S-SW 0,6 C 0,7 C
01.12.2012 14:00 2,5 C 89 % 1012,0 hPa 0,0 l/m 5,3 km/h (1 Bft) SW 0,8 C 1,4 C
01.12.2012 15:00 2,5 C 89 % 1011,9 hPa 0,0 l/m 6,4 km/h (2 Bft) W-SW 0,9 C 0,9 C
01.12.2012 16:00 2,5 C 89 % 1012,0 hPa 0,0 l/m 4,0 km/h (1 Bft) S-SW 0,9 C 1,8 C
01.12.2012 17:00 2,6 C 90 % 1012,0 hPa 0,0 l/m 4,0 km/h (1 Bft) S-SW 1,1 C 2,1 C
01.12.2012 18:00 2,6 C 89 % 1011,7 hPa 0,0 l/m 2,9 km/h (1 Bft) S-SW 1,0 C 2,2 C
01.12.2012 19:00 2,5 C 90 % 1011,6 hPa 0,0 l/m 5,9 km/h (2 Bft) S 0,9 C 1,1 C
01.12.2012 20:00 2,4 C 90 % 1011,4 hPa 0,5 l/m 4,0 km/h (1 Bft) S-SW 0,9 C 1,8 C
01.12.2012 21:00 2,0 C 90 % 1011,2 hPa 0,0 l/m 7,9 km/h (2 Bft) S-SW 0,6 C -0,1 C
01.12.2012 22:00 2,0 C 90 % 1010,8 hPa 0,0 l/m 6,4 km/h (2 Bft) S 0,5 C 0,4 C
01.12.2012 23:00 1,8 C 90 % 1010,8 hPa 0,0 l/m 5,3 km/h (1 Bft) S-SW 0,3 C 0,5 C
02.12.2012 00:00 1,6 C 90 % 1010,5 hPa 0,0 l/m 6,1 km/h (2 Bft) S 0,1 C -0,2 C
02.12.2012 01:00 1,4 C 90 % 1010,0 hPa 0,0 l/m 5,0 km/h (1 Bft) S-SO -0,1 C 0,3 C
02.12.2012 02:00 1,1 C 89 % 1009,6 hPa 0,0 l/m 8,2 km/h (2 Bft) S-SW -0,5 C -1,2 C
02.12.2012 03:00 0,6 C 89 % 1009,1 hPa 0,0 l/m 7,5 km/h (2 Bft) S-SW -1,0 C -1,6 C
02.12.2012 04:00 0,4 C 89 % 1008,7 hPa 0,0 l/m 8,0 km/h (2 Bft) S -1,2 C -2,0 C
02.12.2012 05:00 0,6 C 87 % 1008,6 hPa 0,0 l/m 9,9 km/h (2 Bft) S-SW -1,2 C -2,1 C
02.12.2012 06:00 0,6 C 87 % 1008,4 hPa 0,0 l/m 10,3 km/h (2 Bft) S-SW -1,3 C -2,5 C
02.12.2012 07:00 0,2 C 88 % 1008,4 hPa 0,0 l/m 9,7 km/h (2 Bft) S -1,5 C -2,8 C
02.12.2012 08:00 0,1 C 90 % 1008,7 hPa 0,0 l/m 6,1 km/h (2 Bft) S -1,4 C -1,7 C
02.12.2012 09:00 0,1 C 90 % 1009,0 hPa 0,0 l/m 6,6 km/h (2 Bft) SO -1,3 C -2,0 C
02.12.2012 10:00 0,5 C 91 % 1009,1 hPa 0,0 l/m 4,6 km/h (1 Bft) S-SO -0,8 C -0,6 C
02.12.2012 11:00 0,8 C 90 % 1009,1 hPa 0,0 l/m 4,1 km/h (1 Bft) SO -0,6 C -0,0 C
02.12.2012 12:00 0,9 C 90 % 1008,8 hPa 0,0 l/m 3,2 km/h (1 Bft) S-SO -0,6 C 0,3 C
02.12.2012 13:00 1,0 C 89 % 1008,8 hPa 0,0 l/m 2,0 km/h (1 Bft) SO -0,6 C 0,9 C
02.12.2012 14:00 1,2 C 89 % 1008,8 hPa 0,0 l/m 1,8 km/h (1 Bft) SO -0,4 C 1,0 C
02.12.2012 15:00 1,1 C 89 % 1009,2 hPa 0,0 l/m 0,8 km/h (0 Bft) SO -0,5 C 1,1 C
02.12.2012 16:00 1,0 C 89 % 1009,7 hPa 0,0 l/m 0,1 km/h (0 Bft) SO -0,6 C 1,0 C
02.12.2012 17:00 0,7 C 89 % 1010,0 hPa 0,0 l/m 0,5 km/h (0 Bft) O-NO -0,8 C 0,7 C
02.12.2012 18:00 0,3 C 91 % 1010,4 hPa 0,0 l/m 0,0 km/h (0 Bft) N -1,0 C 0,3 C
02.12.2012 19:00 0,2 C 91 % 1010,9 hPa 0,0 l/m 0,0 km/h (0 Bft) N -1,1 C 0,2 C
02.12.2012 20:00 0,2 C 92 % 1011,4 hPa 0,0 l/m 0,0 km/h (0 Bft) N -0,9 C 0,2 C
02.12.2012 21:00 0,2 C 92 % 1011,8 hPa 0,0 l/m 0,0 km/h (0 Bft) N -0,9 C 0,2 C
02.12.2012 22:00 0,4 C 92 % 1012,3 hPa 0,0 l/m 0,0 km/h (0 Bft) N -0,7 C 0,4 C
02.12.2012 23:00 0,5 C 93 % 1012,9 hPa 0,0 l/m 0,8 km/h (0 Bft) N-NW -0,5 C 0,5 C
Min-Datum _ 30.11.12 26.11.12 29.11.12 - 26.11.12 - 30.11.12 02.12.12
_ Min-Zeit 22:16 15:41 13:26 - 04:01 - 22:16 07:31
Minimum _ -1,6 C 72 % 997,8 hPa - 0,0 km/h (0 Bft) - -3,3 C -5,3 C
Max-Datum _ 26.11.12 28.11.12 02.12.12 26.11.12 29.11.12 - 27.11.12 26.11.12
_ Max-Zeit 15:41 08:51 23:56 22:11 11:56 - 12:56 15:41
Maximum _ 10,7 C 94 % 1013,2 hPa 1,0 l/m 27,0 km/h
N-NO (4 Bft)
- 7,5 C 10,7 C
Durchschnitt _ 3,9 C 89 % 1006,8 hPa #4,7 l/m 5,0 km/h (1 Bft) S-SW 2,2 C 2,9 C
(c) by David Heller